createdAt,value
2017-02-22T00:00:40.323Z,0
2017-02-22T00:01:50.500Z,0
2017-02-22T00:02:59.856Z,0
2017-02-22T00:04:10.485Z,0
2017-02-22T00:05:20.663Z,0
2017-02-22T00:06:30.419Z,0
2017-02-22T00:07:41.057Z,0
2017-02-22T00:08:51.304Z,0
2017-02-22T00:10:01.501Z,0
2017-02-22T00:11:11.722Z,0
2017-02-22T00:12:21.915Z,0
2017-02-22T00:13:31.656Z,0
2017-02-22T00:14:41.937Z,0
2017-02-22T00:15:51.243Z,0
2017-02-22T00:17:00.548Z,0
2017-02-22T00:18:09.871Z,0
2017-02-22T00:19:20.066Z,0
2017-02-22T00:20:29.879Z,0
2017-02-22T00:21:40.076Z,0
2017-02-22T00:22:49.413Z,0
2017-02-22T00:23:59.193Z,0
2017-02-22T00:25:09.404Z,0
2017-02-22T00:26:19.632Z,0
2017-02-22T00:27:29.421Z,0
2017-02-22T00:28:40.035Z,0
2017-02-22T00:29:49.781Z,0
2017-02-22T00:30:59.085Z,0
2017-02-22T00:32:09.023Z,0
2017-02-22T00:33:19.224Z,0
2017-02-22T00:34:28.973Z,0
2017-02-22T00:35:38.279Z,0
2017-02-22T00:36:47.591Z,0
2017-02-22T00:37:57.992Z,0
2017-02-22T00:39:07.756Z,0
2017-02-22T00:40:17.939Z,0
2017-02-22T00:41:28.124Z,0
2017-02-22T00:42:37.881Z,0
2017-02-22T00:43:48.111Z,0
2017-02-22T00:44:57.419Z,0
2017-02-22T00:46:07.179Z,0
2017-02-22T00:47:16.517Z,0
2017-02-22T00:48:26.283Z,0
2017-02-22T00:49:36.078Z,0
2017-02-22T00:50:45.842Z,0
2017-02-22T00:51:55.598Z,0
2017-02-22T00:53:04.915Z,0
2017-02-22T00:54:15.567Z,0
2017-02-22T00:55:25.408Z,0
2017-02-22T00:56:35.595Z,0
2017-02-22T00:57:45.332Z,0
2017-02-22T00:58:55.525Z,0
2017-02-22T01:00:05.278Z,0
2017-02-22T01:01:14.799Z,0
2017-02-22T01:02:24.578Z,0
2017-02-22T01:03:34.336Z,0
2017-02-22T01:04:44.967Z,0
2017-02-22T01:05:54.272Z,0
2017-02-22T01:07:04.507Z,0
2017-02-22T01:08:14.713Z,0
2017-02-22T01:09:24.460Z,0
2017-02-22T01:10:34.213Z,0
2017-02-22T01:11:43.978Z,0
2017-02-22T01:12:53.826Z,0
2017-02-22T01:14:03.130Z,0
2017-02-22T01:15:12.436Z,0
2017-02-22T01:16:21.763Z,0
2017-02-22T01:17:31.511Z,0
2017-02-22T01:18:41.079Z,0
2017-02-22T01:19:51.278Z,0
2017-02-22T01:21:01.046Z,0
2017-02-22T01:22:12.096Z,0
2017-02-22T01:23:21.412Z,0
2017-02-22T01:24:31.658Z,0
2017-02-22T01:25:41.432Z,0
2017-02-22T01:26:50.751Z,0
2017-02-22T01:28:00.518Z,0
2017-02-22T01:29:09.851Z,0
2017-02-22T01:30:19.656Z,0
2017-02-22T01:31:29.401Z,0
2017-02-22T01:32:39.154Z,0
2017-02-22T01:33:48.924Z,0
2017-02-22T01:34:59.109Z,0
2017-02-22T01:36:08.914Z,0
2017-02-22T01:37:18.226Z,0
2017-02-22T01:38:28.420Z,0
2017-02-22T01:39:38.173Z,0
2017-02-22T01:40:47.921Z,0
2017-02-22T01:41:58.180Z,0
2017-02-22T01:43:07.945Z,0
2017-02-22T01:44:17.749Z,0
2017-02-22T01:45:27.514Z,0
2017-02-22T01:46:37.279Z,0
2017-02-22T01:47:47.525Z,0
2017-02-22T01:48:57.283Z,0
2017-02-22T01:50:06.604Z,0
2017-02-22T01:51:16.374Z,0
2017-02-22T01:52:25.706Z,0
2017-02-22T01:53:35.059Z,0
2017-02-22T01:54:44.808Z,0
2017-02-22T01:55:54.564Z,0
2017-02-22T01:57:04.327Z,0
2017-02-22T01:58:14.076Z,0
2017-02-22T01:59:23.882Z,0
2017-02-22T02:00:33.183Z,0
2017-02-22T02:01:42.484Z,0
2017-02-22T02:02:51.805Z,0
2017-02-22T02:04:01.105Z,0
2017-02-22T02:05:10.903Z,0
2017-02-22T02:06:20.660Z,0
2017-02-22T02:07:30.408Z,0
2017-02-22T02:08:40.151Z,0
2017-02-22T02:09:49.910Z,0
2017-02-22T02:10:59.709Z,0
2017-02-22T02:12:09.450Z,0
2017-02-22T02:13:18.772Z,0
2017-02-22T02:14:28.954Z,0
2017-02-22T02:15:38.706Z,0
2017-02-22T02:16:48.063Z,0
2017-02-22T02:17:57.820Z,0
2017-02-22T02:19:07.580Z,0
2017-02-22T02:20:17.326Z,0
2017-02-22T02:21:27.509Z,0
2017-02-22T02:22:36.865Z,0
2017-02-22T02:23:47.062Z,0
2017-02-22T02:24:56.803Z,0
2017-02-22T02:26:06.135Z,0
2017-02-22T02:27:15.465Z,0
2017-02-22T02:28:25.255Z,0
2017-02-22T02:29:34.996Z,0
2017-02-22T02:30:44.336Z,0
2017-02-22T02:31:54.094Z,0
2017-02-22T02:33:03.859Z,0
2017-02-22T02:34:13.236Z,0
2017-02-22T02:35:22.545Z,0
2017-02-22T02:36:31.897Z,0
2017-02-22T02:37:42.535Z,0
2017-02-22T02:38:51.891Z,0
2017-02-22T02:40:01.434Z,0
2017-02-22T02:41:11.219Z,0
2017-02-22T02:42:20.968Z,0
2017-02-22T02:43:30.290Z,0
2017-02-22T02:44:40.063Z,0
2017-02-22T02:45:49.428Z,0
2017-02-22T02:46:59.621Z,0
2017-02-22T02:48:08.939Z,0
2017-02-22T02:49:18.275Z,0
2017-02-22T02:50:27.585Z,0
2017-02-22T02:51:37.398Z,0
2017-02-22T02:52:46.715Z,0
2017-02-22T02:53:56.904Z,0
2017-02-22T02:55:06.225Z,0
2017-02-22T02:56:15.978Z,0
2017-02-22T02:57:25.791Z,0
2017-02-22T02:58:35.109Z,0
2017-02-22T02:59:44.430Z,0
2017-02-22T03:00:54.651Z,0
2017-02-22T03:02:04.000Z,0
2017-02-22T03:03:13.373Z,0
2017-02-22T03:04:22.694Z,0
2017-02-22T03:05:32.004Z,0
2017-02-22T03:06:41.757Z,0
2017-02-22T03:07:51.073Z,0
2017-02-22T03:09:00.452Z,0
2017-02-22T03:10:09.761Z,0
2017-02-22T03:11:19.534Z,0
2017-02-22T03:12:28.886Z,0
2017-02-22T03:13:38.196Z,0
2017-02-22T03:14:47.771Z,0
2017-02-22T03:15:57.522Z,0
2017-02-22T03:17:06.835Z,0
2017-02-22T03:18:16.156Z,0
2017-02-22T03:19:25.494Z,0
2017-02-22T03:20:34.863Z,0
2017-02-22T03:21:44.216Z,0
2017-02-22T03:22:53.561Z,0
2017-02-22T03:24:03.314Z,0
2017-02-22T03:25:12.644Z,0
2017-02-22T03:26:22.024Z,0
2017-02-22T03:27:31.345Z,0
2017-02-22T03:28:40.654Z,0
2017-02-22T03:29:49.967Z,0
2017-02-22T03:30:59.294Z,0
2017-02-22T03:32:09.566Z,0
2017-02-22T03:33:18.879Z,0
2017-02-22T03:34:28.196Z,0
2017-02-22T03:35:37.953Z,0
2017-02-22T03:36:47.285Z,0
2017-02-22T03:37:56.654Z,0
2017-02-22T03:39:05.961Z,0
2017-02-22T03:40:15.710Z,0
2017-02-22T03:41:25.038Z,0
2017-02-22T03:42:34.360Z,0
2017-02-22T03:43:44.613Z,0
2017-02-22T03:44:53.918Z,0
2017-02-22T03:46:03.224Z,0
2017-02-22T03:47:12.989Z,0
2017-02-22T03:48:22.318Z,0
2017-02-22T03:49:31.679Z,0
2017-02-22T03:50:41.457Z,0
2017-02-22T03:51:50.770Z,0
2017-02-22T03:53:00.531Z,0
2017-02-22T03:54:09.868Z,0
2017-02-22T03:55:19.446Z,0
2017-02-22T03:56:29.231Z,0
2017-02-22T03:57:38.554Z,0
2017-02-22T03:58:48.744Z,0
2017-02-22T03:59:58.055Z,0
2017-02-22T04:01:07.419Z,0
2017-02-22T04:02:16.732Z,0
2017-02-22T04:03:26.064Z,0
2017-02-22T04:04:35.826Z,0
2017-02-22T04:05:46.036Z,0
2017-02-22T04:06:55.413Z,0
2017-02-22T04:08:04.718Z,0
2017-02-22T04:09:14.023Z,0
2017-02-22T04:10:23.345Z,0
2017-02-22T04:11:32.690Z,0
2017-02-22T04:12:42.091Z,0
2017-02-22T04:13:51.408Z,0
2017-02-22T04:15:01.172Z,0
2017-02-22T04:16:11.387Z,0
2017-02-22T04:17:20.720Z,0
2017-02-22T04:18:30.133Z,0
2017-02-22T04:19:39.898Z,0
2017-02-22T04:20:49.212Z,0
2017-02-22T04:21:58.985Z,0
2017-02-22T04:23:08.778Z,0
2017-02-22T04:24:18.575Z,0
2017-02-22T04:25:28.337Z,0
2017-02-22T04:26:37.648Z,0
2017-02-22T04:27:47.423Z,0
2017-02-22T04:28:57.192Z,0
2017-02-22T04:30:06.573Z,0
2017-02-22T04:31:16.330Z,0
2017-02-22T04:32:25.651Z,0
2017-02-22T04:33:34.967Z,0
2017-02-22T04:34:44.286Z,0
2017-02-22T04:35:53.662Z,0
2017-02-22T04:37:03.428Z,0
2017-02-22T04:38:12.744Z,0
2017-02-22T04:39:22.075Z,0
2017-02-22T04:40:31.404Z,0
2017-02-22T04:41:40.777Z,0
2017-02-22T04:42:50.098Z,0
2017-02-22T04:44:00.288Z,0
2017-02-22T04:45:09.620Z,0
2017-02-22T04:46:19.398Z,0
2017-02-22T04:47:29.195Z,0
2017-02-22T04:48:38.528Z,0
2017-02-22T04:49:47.845Z,0
2017-02-22T04:50:57.159Z,0
2017-02-22T04:52:06.484Z,0
2017-02-22T04:53:15.853Z,0
2017-02-22T04:54:25.178Z,0
2017-02-22T04:55:34.504Z,0
2017-02-22T04:56:43.817Z,0
2017-02-22T04:57:53.142Z,0
2017-02-22T04:59:03.391Z,0
2017-02-22T05:00:13.160Z,0
2017-02-22T05:01:22.477Z,0
2017-02-22T05:02:31.806Z,0
2017-02-22T05:03:42.010Z,0
2017-02-22T05:04:51.825Z,0
2017-02-22T05:06:01.186Z,0
2017-02-22T05:07:10.507Z,0
2017-02-22T05:08:20.257Z,0
2017-02-22T05:09:29.592Z,0
2017-02-22T05:10:39.847Z,0
2017-02-22T05:11:49.189Z,0
2017-02-22T05:12:58.497Z,0
2017-02-22T05:14:08.255Z,0
2017-02-22T05:15:18.020Z,0
2017-02-22T05:16:27.392Z,0
2017-02-22T05:17:36.695Z,0
2017-02-22T05:18:46.019Z,0
2017-02-22T05:19:55.808Z,0
2017-02-22T05:21:05.592Z,0
2017-02-22T05:22:16.014Z,0
2017-02-22T05:23:25.795Z,0
2017-02-22T05:24:35.553Z,0
2017-02-22T05:25:44.878Z,0
2017-02-22T05:26:54.659Z,0
2017-02-22T05:28:04.920Z,0
2017-02-22T05:29:14.224Z,0
2017-02-22T05:30:23.565Z,0
2017-02-22T05:31:33.338Z,0
2017-02-22T05:32:43.088Z,0
2017-02-22T05:33:52.464Z,0
2017-02-22T05:35:02.262Z,0
2017-02-22T05:36:12.023Z,0
2017-02-22T05:37:21.342Z,0
2017-02-22T05:38:31.095Z,0
2017-02-22T05:39:40.904Z,0
2017-02-22T05:40:50.232Z,0
2017-02-22T05:41:59.550Z,0
2017-02-22T05:43:08.866Z,0
2017-02-22T05:44:18.624Z,0
2017-02-22T05:45:28.028Z,0
2017-02-22T05:46:37.369Z,0
2017-02-22T05:47:47.583Z,0
2017-02-22T05:48:57.340Z,0
2017-02-22T05:50:07.542Z,0
2017-02-22T05:51:16.914Z,0
2017-02-22T05:52:26.684Z,0
2017-02-22T05:53:35.992Z,0
2017-02-22T05:54:46.195Z,0
2017-02-22T05:55:55.952Z,0
2017-02-22T05:57:05.777Z,0
2017-02-22T05:58:15.091Z,0
2017-02-22T05:59:24.406Z,0
2017-02-22T06:00:34.612Z,0
2017-02-22T06:01:43.938Z,0
2017-02-22T06:02:53.735Z,4
2017-02-22T06:04:03.065Z,4
2017-02-22T06:05:12.381Z,4
2017-02-22T06:06:22.143Z,4
2017-02-22T06:07:31.900Z,0
2017-02-22T06:08:41.298Z,4
2017-02-22T06:09:51.059Z,4
2017-02-22T06:11:00.395Z,4
2017-02-22T06:12:09.700Z,4
2017-02-22T06:13:19.476Z,8
2017-02-22T06:14:29.718Z,12
2017-02-22T06:15:39.027Z,12
2017-02-22T06:16:48.789Z,16
2017-02-22T06:17:58.541Z,16
2017-02-22T06:19:08.304Z,24
2017-02-22T06:20:17.669Z,28
2017-02-22T06:21:27.446Z,28
2017-02-22T06:22:36.759Z,20
2017-02-22T06:23:46.084Z,24
2017-02-22T06:24:55.414Z,32
2017-02-22T06:26:05.375Z,40
2017-02-22T06:27:14.703Z,48
2017-02-22T06:28:24.461Z,68
2017-02-22T06:29:33.790Z,60
2017-02-22T06:30:43.099Z,68
2017-02-22T06:31:52.909Z,76
2017-02-22T06:33:02.233Z,116
2017-02-22T06:34:11.554Z,132
2017-02-22T06:35:20.872Z,156
2017-02-22T06:36:30.632Z,140
2017-02-22T06:37:40.453Z,176
2017-02-22T06:38:50.223Z,228
2017-02-22T06:39:59.990Z,236
2017-02-22T06:41:09.306Z,260
2017-02-22T06:42:18.609Z,196
2017-02-22T06:43:27.982Z,336
2017-02-22T06:44:37.769Z,328
2017-02-22T06:45:47.105Z,156
2017-02-22T06:46:57.315Z,216
2017-02-22T06:48:06.669Z,224
2017-02-22T06:49:16.470Z,164
2017-02-22T06:50:25.831Z,188
2017-02-22T06:51:35.164Z,176
2017-02-22T06:52:44.469Z,192
2017-02-22T06:53:53.799Z,228
2017-02-22T06:55:03.176Z,156
2017-02-22T06:56:12.955Z,96
2017-02-22T06:57:22.718Z,288
2017-02-22T06:58:32.478Z,164
2017-02-22T06:59:41.784Z,208
2017-02-22T07:00:51.149Z,288
2017-02-22T07:02:00.903Z,224
2017-02-22T07:03:10.239Z,212
2017-02-22T07:04:19.572Z,284
2017-02-22T07:05:28.902Z,312
2017-02-22T07:06:38.283Z,284
2017-02-22T07:07:47.600Z,336
2017-02-22T07:08:57.361Z,656
2017-02-22T07:10:07.107Z,648
2017-02-22T07:11:16.455Z,592
2017-02-22T07:12:26.249Z,968
2017-02-22T07:13:36.463Z,1092
2017-02-22T07:14:46.219Z,1004
2017-02-22T07:15:55.551Z,956
2017-02-22T07:17:06.196Z,872
2017-02-22T07:18:16.001Z,812
2017-02-22T07:19:26.200Z,916
2017-02-22T07:20:35.981Z,896
2017-02-22T07:21:45.303Z,716
2017-02-22T07:22:55.072Z,972
2017-02-22T07:24:04.661Z,744
2017-02-22T07:25:14.861Z,1008
2017-02-22T07:26:25.055Z,1052
2017-02-22T07:27:35.256Z,612
2017-02-22T07:28:45.473Z,1060
2017-02-22T07:29:54.850Z,1108
2017-02-22T07:31:04.608Z,1224
2017-02-22T07:32:13.929Z,984
2017-02-22T07:33:23.277Z,1024
2017-02-22T07:34:33.032Z,1144
2017-02-22T07:35:42.836Z,1192
2017-02-22T07:36:53.030Z,816
2017-02-22T07:38:02.354Z,1136
2017-02-22T07:39:11.672Z,808
2017-02-22T07:40:21.012Z,812
2017-02-22T07:41:30.927Z,972
2017-02-22T07:42:41.128Z,1112
2017-02-22T07:43:50.903Z,1320
2017-02-22T07:45:01.122Z,1080
2017-02-22T07:46:10.438Z,912
2017-02-22T07:47:20.237Z,1124
2017-02-22T07:48:29.556Z,936
2017-02-22T07:49:38.867Z,1076
2017-02-22T07:50:48.636Z,1188
2017-02-22T07:51:57.973Z,1304
2017-02-22T07:53:07.337Z,840
2017-02-22T07:54:16.652Z,680
2017-02-22T07:55:26.417Z,704
2017-02-22T07:56:35.733Z,820
2017-02-22T07:57:45.110Z,992
2017-02-22T07:58:54.968Z,920
2017-02-22T08:00:04.345Z,1116
2017-02-22T08:01:13.682Z,860
2017-02-22T08:02:22.984Z,784
2017-02-22T08:03:32.297Z,956
2017-02-22T08:04:42.110Z,804
2017-02-22T08:05:51.887Z,988
2017-02-22T08:07:01.223Z,784
2017-02-22T08:08:10.964Z,804
2017-02-22T08:09:21.166Z,1096
2017-02-22T08:10:30.544Z,920
2017-02-22T08:11:40.309Z,1252
2017-02-22T08:12:49.654Z,1424
2017-02-22T08:13:58.992Z,1216
2017-02-22T08:15:08.333Z,1216
2017-02-22T08:16:18.174Z,1184
2017-02-22T08:17:27.483Z,976
2017-02-22T08:18:37.236Z,1224
2017-02-22T08:19:46.545Z,2088
2017-02-22T08:20:56.301Z,1288
2017-02-22T08:22:06.135Z,1264
2017-02-22T08:23:16.339Z,1556
2017-02-22T08:24:26.089Z,1132
2017-02-22T08:25:35.408Z,1060
2017-02-22T08:26:45.180Z,1068
2017-02-22T08:27:54.986Z,804
2017-02-22T08:29:05.243Z,720
2017-02-22T08:30:14.567Z,692
2017-02-22T08:31:24.757Z,956
2017-02-22T08:32:34.969Z,1044
2017-02-22T08:33:44.775Z,1048
2017-02-22T08:34:54.091Z,1376
2017-02-22T08:36:04.294Z,1364
2017-02-22T08:37:13.635Z,1252
2017-02-22T08:38:22.992Z,1420
2017-02-22T08:39:32.365Z,1512
2017-02-22T08:40:41.695Z,1720
2017-02-22T08:41:51.016Z,1624
2017-02-22T08:43:00.769Z,2088
2017-02-22T08:44:10.531Z,1884
2017-02-22T08:45:19.991Z,1876
2017-02-22T08:46:29.347Z,1656
2017-02-22T08:47:38.682Z,1432
2017-02-22T08:48:48.435Z,1564
2017-02-22T08:49:57.762Z,1960
2017-02-22T08:51:07.129Z,2052
2017-02-22T08:52:16.891Z,2192
2017-02-22T08:53:27.088Z,2204
2017-02-22T08:54:36.406Z,2688
2017-02-22T08:55:45.750Z,2628
2017-02-22T08:56:55.146Z,3052
2017-02-22T08:58:04.909Z,2892
2017-02-22T08:59:15.101Z,3404
2017-02-22T09:00:24.426Z,2636
2017-02-22T09:01:33.744Z,2056
2017-02-22T09:02:43.114Z,2636
2017-02-22T09:03:53.313Z,2396
2017-02-22T09:05:03.140Z,2084
2017-02-22T09:06:12.445Z,2344
2017-02-22T09:07:21.758Z,2032
2017-02-22T09:08:31.594Z,2608
2017-02-22T09:09:41.380Z,2728
2017-02-22T09:10:50.701Z,2132
2017-02-22T09:12:00.011Z,1696
2017-02-22T09:13:09.360Z,1712
2017-02-22T09:14:19.345Z,2664
2017-02-22T09:15:29.541Z,1956
2017-02-22T09:16:39.338Z,1672
2017-02-22T09:17:49.097Z,1552
2017-02-22T09:18:58.430Z,1400
2017-02-22T09:20:07.811Z,1600
2017-02-22T09:21:17.157Z,1188
2017-02-22T09:22:26.477Z,1428
2017-02-22T09:23:35.790Z,1544
2017-02-22T09:24:45.135Z,1684
2017-02-22T09:25:54.505Z,1812
2017-02-22T09:27:04.262Z,2012
2017-02-22T09:28:14.019Z,1780
2017-02-22T09:29:23.348Z,2032
2017-02-22T09:30:32.667Z,1696
2017-02-22T09:31:42.039Z,2220
2017-02-22T09:32:51.356Z,2328
2017-02-22T09:34:00.665Z,1556
2017-02-22T09:35:10.002Z,2036
2017-02-22T09:36:19.762Z,1816
2017-02-22T09:37:29.140Z,1812
2017-02-22T09:38:38.925Z,1612
2017-02-22T09:39:48.682Z,1180
2017-02-22T09:40:58.025Z,1336
2017-02-22T09:42:07.341Z,1072
2017-02-22T09:43:16.711Z,1580
2017-02-22T09:44:26.467Z,1956
2017-02-22T09:45:35.805Z,2000
2017-02-22T09:46:45.132Z,2856
2017-02-22T09:47:54.935Z,2476
2017-02-22T09:49:04.327Z,2844
2017-02-22T09:50:14.077Z,2944
2017-02-22T09:51:23.402Z,3092
2017-02-22T09:52:32.714Z,2316
2017-02-22T09:53:42.907Z,1992
2017-02-22T09:54:52.270Z,1792
2017-02-22T09:56:01.619Z,2728
2017-02-22T09:57:10.924Z,2316
2017-02-22T09:58:20.680Z,2280
2017-02-22T09:59:30.426Z,2000
2017-02-22T10:00:39.788Z,2964
2017-02-22T10:01:49.122Z,2372
2017-02-22T10:02:58.873Z,2096
2017-02-22T10:04:08.627Z,2524
2017-02-22T10:05:17.996Z,2248
2017-02-22T10:06:27.394Z,2608
2017-02-22T10:07:37.163Z,2396
2017-02-22T10:08:46.528Z,2252
2017-02-22T10:09:55.879Z,2368
2017-02-22T10:11:06.094Z,2700
2017-02-22T10:12:15.458Z,1096
2017-02-22T10:13:24.784Z,1920
2017-02-22T10:14:34.124Z,1652
2017-02-22T10:15:43.889Z,1480
2017-02-22T10:16:53.212Z,2504
2017-02-22T10:18:02.725Z,1912
2017-02-22T10:19:12.064Z,2004
2017-02-22T10:20:21.379Z,1960
2017-02-22T10:21:30.744Z,1736
2017-02-22T10:22:40.516Z,2260
2017-02-22T10:23:51.198Z,2528
2017-02-22T10:25:00.984Z,2640
2017-02-22T10:26:10.761Z,2776
2017-02-22T10:27:20.097Z,2820
2017-02-22T10:28:29.419Z,1764
2017-02-22T10:29:38.799Z,1964
2017-02-22T10:30:49.437Z,1892
2017-02-22T10:31:58.766Z,2788
2017-02-22T10:33:08.099Z,3268
2017-02-22T10:34:17.865Z,3684
2017-02-22T10:35:27.249Z,3468
2017-02-22T10:36:37.023Z,3708
2017-02-22T10:37:46.363Z,3740
2017-02-22T10:38:55.675Z,2696
2017-02-22T10:40:05.458Z,3192
2017-02-22T10:41:15.291Z,2288
2017-02-22T10:42:24.619Z,2980
2017-02-22T10:43:33.942Z,3608
2017-02-22T10:44:43.257Z,3016
2017-02-22T10:45:53.448Z,3284
2017-02-22T10:47:03.701Z,2456
2017-02-22T10:48:13.051Z,2428
2017-02-22T10:49:22.375Z,2912
2017-02-22T10:50:32.128Z,3368
2017-02-22T10:51:41.453Z,3036
2017-02-22T10:52:51.267Z,3844
2017-02-22T10:54:00.620Z,4092
2017-02-22T10:55:10.401Z,4104
2017-02-22T10:56:19.735Z,3476
2017-02-22T10:57:29.052Z,2740
2017-02-22T10:58:38.869Z,2364
2017-02-22T10:59:48.190Z,2848
2017-02-22T11:00:57.507Z,2068
2017-02-22T11:02:06.829Z,3176
2017-02-22T11:03:16.164Z,2372
2017-02-22T11:04:25.967Z,2472
2017-02-22T11:05:35.724Z,2424
2017-02-22T11:06:45.057Z,2444
2017-02-22T11:07:54.839Z,2876
2017-02-22T11:09:04.180Z,3216
2017-02-22T11:10:14.003Z,3728
2017-02-22T11:11:23.754Z,3392
2017-02-22T11:12:33.517Z,3192
2017-02-22T11:13:42.831Z,3104
2017-02-22T11:14:53.485Z,4320
2017-02-22T11:16:02.887Z,4620
2017-02-22T11:17:12.200Z,4580
2017-02-22T11:18:22.005Z,4468
2017-02-22T11:19:31.331Z,3884
2017-02-22T11:20:40.645Z,4528
2017-02-22T11:21:50.036Z,5768
2017-02-22T11:22:59.358Z,4680
2017-02-22T11:24:09.147Z,5184
2017-02-22T11:25:18.908Z,6116
2017-02-22T11:26:28.229Z,5656
2017-02-22T11:27:37.758Z,4596
2017-02-22T11:28:47.075Z,3372
2017-02-22T11:29:56.413Z,3144
2017-02-22T11:31:05.782Z,3484
2017-02-22T11:32:15.095Z,3696
2017-02-22T11:33:24.468Z,3908
2017-02-22T11:34:33.794Z,3908
2017-02-22T11:35:43.127Z,3708
2017-02-22T11:36:52.448Z,5656
2017-02-22T11:38:01.797Z,4988
2017-02-22T11:39:11.162Z,4820
2017-02-22T11:40:20.526Z,4128
2017-02-22T11:41:29.861Z,4816
2017-02-22T11:42:40.071Z,4912
2017-02-22T11:43:49.855Z,5464
2017-02-22T11:44:59.247Z,3260
2017-02-22T11:46:09.009Z,3712
2017-02-22T11:47:18.322Z,5148
2017-02-22T11:48:27.667Z,4256
2017-02-22T11:49:37.473Z,3404
2017-02-22T11:50:46.870Z,4000
2017-02-22T11:51:56.630Z,4248
2017-02-22T11:53:06.416Z,5404
2017-02-22T11:54:15.753Z,5440
2017-02-22T11:55:25.081Z,5816
2017-02-22T11:56:34.888Z,4932
2017-02-22T11:57:44.217Z,4188
2017-02-22T11:58:53.554Z,4308
2017-02-22T12:00:03.310Z,4172
2017-02-22T12:01:12.648Z,4272
2017-02-22T12:02:22.046Z,4224
2017-02-22T12:03:32.259Z,3708
2017-02-22T12:04:41.588Z,3996
2017-02-22T12:05:50.917Z,5464
2017-02-22T12:07:00.263Z,4548
2017-02-22T12:08:10.515Z,4840
2017-02-22T12:09:20.285Z,5180
2017-02-22T12:10:29.618Z,5184
2017-02-22T12:11:39.375Z,5868
2017-02-22T12:12:48.719Z,4312
2017-02-22T12:13:58.257Z,3764
2017-02-22T12:15:07.667Z,4112
2017-02-22T12:16:16.988Z,3068
2017-02-22T12:17:26.765Z,4828
2017-02-22T12:18:36.078Z,5356
2017-02-22T12:19:45.461Z,5772
2017-02-22T12:20:54.824Z,5592
2017-02-22T12:22:04.154Z,5472
2017-02-22T12:23:13.475Z,6332
2017-02-22T12:24:22.800Z,6040
2017-02-22T12:25:32.208Z,7604
2017-02-22T12:26:41.975Z,6496
2017-02-22T12:27:51.322Z,6652
2017-02-22T12:29:01.081Z,6836
2017-02-22T12:30:10.858Z,6900
2017-02-22T12:31:20.223Z,7248
2017-02-22T12:32:29.553Z,6992
2017-02-22T12:33:38.865Z,7136
2017-02-22T12:34:48.199Z,7740
2017-02-22T12:35:58.396Z,7368
2017-02-22T12:37:07.793Z,6452
2017-02-22T12:38:17.575Z,5716
2017-02-22T12:39:26.899Z,5804
2017-02-22T12:40:36.220Z,4972
2017-02-22T12:41:45.546Z,3600
2017-02-22T12:42:55.359Z,5044
2017-02-22T12:44:04.667Z,5272
2017-02-22T12:45:13.982Z,4820
2017-02-22T12:46:23.314Z,5808
2017-02-22T12:47:32.640Z,7376
2017-02-22T12:48:42.177Z,5696
2017-02-22T12:49:51.522Z,4684
2017-02-22T12:51:01.185Z,5360
2017-02-22T12:52:12.976Z,5316
2017-02-22T12:53:23.806Z,3428
2017-02-22T12:54:35.150Z,6596
2017-02-22T12:55:45.845Z,6692
2017-02-22T12:56:55.973Z,4896
2017-02-22T12:58:05.586Z,5932
2017-02-22T12:59:15.438Z,5352
2017-02-22T13:00:25.428Z,4708
2017-02-22T13:01:35.301Z,4788
2017-02-22T13:02:45.225Z,3616
2017-02-22T13:03:56.283Z,3268
2017-02-22T13:05:06.380Z,2476
2017-02-22T13:06:17.178Z,4264
2017-02-22T13:07:27.315Z,3152
2017-02-22T13:08:37.455Z,2780
2017-02-22T13:09:48.009Z,3700
2017-02-22T13:10:58.525Z,3488
2017-02-22T13:12:09.382Z,2320
2017-02-22T13:13:19.441Z,4096
2017-02-22T13:14:28.846Z,4560
2017-02-22T13:15:39.038Z,3220
2017-02-22T13:16:48.531Z,3856
2017-02-22T13:17:58.648Z,2228
2017-02-22T13:19:09.337Z,2008
2017-02-22T13:20:20.371Z,2636
2017-02-22T13:21:30.345Z,2700
2017-02-22T13:22:40.077Z,4152
2017-02-22T13:23:50.000Z,3784
2017-02-22T13:25:00.124Z,3460
2017-02-22T13:26:09.554Z,3028
2017-02-22T13:27:19.046Z,2840
2017-02-22T13:28:29.000Z,3488
2017-02-22T13:29:38.930Z,3648
2017-02-22T13:30:48.691Z,3696
2017-02-22T13:31:58.015Z,3644
2017-02-22T13:33:08.665Z,3708
2017-02-22T13:34:17.997Z,4308
2017-02-22T13:35:27.906Z,2528
2017-02-22T13:36:37.221Z,1696
2017-02-22T13:37:46.546Z,1576
2017-02-22T13:38:55.875Z,2564
2017-02-22T13:40:05.208Z,2460
2017-02-22T13:41:14.841Z,2212
2017-02-22T13:42:24.154Z,3192
2017-02-22T13:43:33.943Z,3508
2017-02-22T13:44:43.724Z,2940
2017-02-22T13:45:53.501Z,2704
2017-02-22T13:47:02.867Z,2500
2017-02-22T13:48:12.176Z,2616
2017-02-22T13:49:21.489Z,3544
2017-02-22T13:50:31.272Z,3644
2017-02-22T13:51:40.599Z,2620
2017-02-22T13:52:49.968Z,2588
2017-02-22T13:53:59.314Z,1908
2017-02-22T13:55:08.647Z,1588
2017-02-22T13:56:17.968Z,1104
2017-02-22T13:57:27.385Z,1988
2017-02-22T13:58:38.710Z,2136
2017-02-22T13:59:49.692Z,2148
2017-02-22T14:00:59.977Z,1780
2017-02-22T14:02:09.786Z,1440
2017-02-22T14:03:19.291Z,916
2017-02-22T14:04:29.678Z,776
2017-02-22T14:05:40.328Z,1128
2017-02-22T14:06:50.115Z,872
2017-02-22T14:07:59.526Z,1200
2017-02-22T14:09:09.401Z,1308
2017-02-22T14:10:18.793Z,1072
2017-02-22T14:11:29.203Z,1348
2017-02-22T14:12:38.519Z,1224
2017-02-22T14:13:48.713Z,1204
2017-02-22T14:14:58.054Z,900
2017-02-22T14:16:07.755Z,948
2017-02-22T14:17:17.581Z,688
2017-02-22T14:18:27.761Z,880
2017-02-22T14:19:37.571Z,1008
2017-02-22T14:20:47.686Z,1084
2017-02-22T14:21:58.740Z,788
2017-02-22T14:23:09.019Z,864
2017-02-22T14:24:18.780Z,480
2017-02-22T14:25:29.079Z,348
2017-02-22T14:26:38.426Z,176
2017-02-22T14:27:48.251Z,192
2017-02-22T14:28:57.579Z,220
2017-02-22T14:30:08.737Z,220
2017-02-22T14:31:18.058Z,264
2017-02-22T14:32:27.848Z,312
2017-02-22T14:33:37.921Z,320
2017-02-22T14:34:47.293Z,504
2017-02-22T14:35:57.131Z,452
2017-02-22T14:37:07.165Z,484
2017-02-22T14:38:17.050Z,368
2017-02-22T14:39:26.439Z,340
2017-02-22T14:40:35.774Z,352
2017-02-22T14:41:45.996Z,336
2017-02-22T14:42:57.123Z,372
2017-02-22T14:44:06.450Z,388
2017-02-22T14:45:17.452Z,328
2017-02-22T14:46:27.309Z,408
2017-02-22T14:47:36.645Z,408
2017-02-22T14:48:46.424Z,472
2017-02-22T14:49:55.812Z,508
2017-02-22T14:51:05.195Z,396
2017-02-22T14:52:14.983Z,388
2017-02-22T14:53:24.893Z,396
2017-02-22T14:54:34.788Z,372
2017-02-22T14:55:45.258Z,456
2017-02-22T14:56:55.420Z,588
2017-02-22T14:58:04.888Z,612
2017-02-22T14:59:14.774Z,692
2017-02-22T15:00:24.101Z,896
2017-02-22T15:01:33.869Z,988
2017-02-22T15:02:44.174Z,812
2017-02-22T15:03:55.223Z,1064
2017-02-22T15:05:04.618Z,828
2017-02-22T15:06:14.512Z,768
2017-02-22T15:07:24.879Z,760
2017-02-22T15:08:34.240Z,724
2017-02-22T15:09:44.377Z,540
2017-02-22T15:10:54.437Z,544
2017-02-22T15:12:04.874Z,468
2017-02-22T15:13:14.207Z,524
2017-02-22T15:14:25.206Z,584
2017-02-22T15:15:35.674Z,744
2017-02-22T15:16:45.090Z,868
2017-02-22T15:17:54.912Z,908
2017-02-22T15:19:04.874Z,1144
2017-02-22T15:20:14.894Z,864
2017-02-22T15:21:25.197Z,552
2017-02-22T15:22:34.960Z,456
2017-02-22T15:23:44.861Z,328
2017-02-22T15:24:55.526Z,296
2017-02-22T15:26:06.001Z,396
2017-02-22T15:27:15.597Z,460
2017-02-22T15:28:25.810Z,388
2017-02-22T15:29:35.351Z,444
2017-02-22T15:30:45.298Z,460
2017-02-22T15:31:54.895Z,508
2017-02-22T15:33:05.028Z,556
2017-02-22T15:34:14.891Z,616
2017-02-22T15:35:25.042Z,576
2017-02-22T15:36:34.588Z,556
2017-02-22T15:37:45.521Z,616
2017-02-22T15:38:55.497Z,464
2017-02-22T15:40:05.264Z,436
2017-02-22T15:41:14.647Z,464
2017-02-22T15:42:24.992Z,376
2017-02-22T15:43:34.363Z,328
2017-02-22T15:44:44.635Z,308
2017-02-22T15:45:55.021Z,260
2017-02-22T15:47:05.422Z,272
2017-02-22T15:48:15.422Z,256
2017-02-22T15:49:26.117Z,248
2017-02-22T15:50:35.450Z,244
2017-02-22T15:51:46.111Z,204
2017-02-22T15:52:56.872Z,172
2017-02-22T15:54:06.373Z,196
2017-02-22T15:55:16.026Z,180
2017-02-22T15:56:26.236Z,204
2017-02-22T15:57:36.625Z,180
2017-02-22T15:58:46.186Z,220
2017-02-22T15:59:55.699Z,176
2017-02-22T16:01:06.092Z,224
2017-02-22T16:02:15.644Z,200
2017-02-22T16:03:25.891Z,224
2017-02-22T16:04:35.213Z,216
2017-02-22T16:05:45.428Z,188
2017-02-22T16:06:54.911Z,164
2017-02-22T16:08:04.894Z,156
2017-02-22T16:09:14.893Z,124
2017-02-22T16:10:24.893Z,108
2017-02-22T16:11:34.706Z,120
2017-02-22T16:12:44.979Z,100